Time;durP1;ratioP1;P1;durP2;ratioP2;P2;SDS_P1;SDS_P2;PMS_P1;PMS_P2;Temp;Humidity;BMP_temperature;BMP_pressure;BME280_temperature;BME280_humidity;BME280_pressure;Samples;Min_cycle;Max_cycle;Signal;HPM_P1;HPM_P2
2022/08/26 00:01:13;;;;;;;24.90;23.40;;;20.90;75.60;;;;;;5032442;28;20072;-79
2022/08/26 00:03:40;;;;;;;26.65;24.92;;;20.90;75.70;;;;;;5050284;28;20039;-79
2022/08/26 00:06:06;;;;;;;27.33;25.63;;;20.80;76.20;;;;;;5050227;28;20032;-79
2022/08/26 00:08:32;;;;;;;25.02;23.52;;;20.80;76.30;;;;;;5049894;28;20025;-79
2022/08/26 00:10:58;;;;;;;24.38;22.90;;;20.80;76.20;;;;;;5033421;28;20033;-79
2022/08/26 00:13:25;;;;;;;23.55;22.00;;;20.90;76.10;;;;;;5051119;28;20408;-77
2022/08/26 00:15:51;;;;;;;24.05;22.58;;;20.90;75.90;;;;;;5032438;28;20036;-77
2022/08/26 00:18:17;;;;;;;26.52;24.80;;;20.90;75.90;;;;;;5033290;28;20045;-77
2022/08/26 00:20:44;;;;;;;23.45;21.95;;;20.90;75.90;;;;;;5049787;28;20040;-77
2022/08/26 00:23:10;;;;;;;23.00;21.20;;;20.90;75.70;;;;;;5032713;28;20048;-77
2022/08/26 00:25:36;;;;;;;23.50;22.00;;;20.90;75.80;;;;;;5049767;28;20025;-79
2022/08/26 00:28:03;;;;;;;23.85;22.17;;;20.80;76.10;;;;;;5049781;28;20083;-79
2022/08/26 00:30:29;;;;;;;24.02;22.58;;;20.90;76.00;;;;;;5049155;28;20033;-79
2022/08/26 00:32:55;;;;;;;27.30;24.92;;;21.00;75.70;;;;;;5049100;28;20383;-79
2022/08/26 00:35:22;;;;;;;25.77;23.75;;;21.10;75.00;;;;;;5049643;28;20029;-79
2022/08/26 00:37:48;;;;;;;27.45;25.25;;;21.10;75.30;;;;;;5049423;28;20370;-79
2022/08/26 00:40:17;;;;;;;29.60;27.60;;;21.10;75.30;;;;;;5029445;28;20191;-79
2022/08/26 00:42:44;;;;;;;28.00;25.98;;;21.20;75.00;;;;;;5012709;28;20037;-79
2022/08/26 00:45:10;;;;;;;27.08;25.60;;;21.30;74.70;;;;;;5049847;28;20029;-79
2022/08/26 00:47:47;;;;;;;27.15;25.33;;;21.30;74.60;;;;;;5036480;28;20051;-79
2022/08/26 00:50:18;;;;;;;26.10;23.90;;;21.30;74.20;;;;;;5016654;28;20044;-79
2022/08/26 00:52:45;;;;;;;26.70;24.77;;;21.30;74.60;;;;;;5032681;28;20032;-79
2022/08/26 00:55:33;;;;;;;26.55;24.95;;;21.20;74.60;;;;;;5032868;28;20454;-79
2022/08/26 00:57:59;;;;;;;25.00;23.17;;;21.10;75.20;;;;;;5049413;28;20029;-79
2022/08/26 01:00:26;;;;;;;23.20;21.63;;;21.00;75.80;;;;;;5032256;28;20036;-79
2022/08/26 01:02:54;;;;;;;21.92;20.40;;;20.90;76.00;;;;;;5032178;28;20520;-79
2022/08/26 01:05:21;;;;;;;24.10;22.50;;;20.90;76.40;;;;;;5049352;28;20029;-79
2022/08/26 01:07:47;;;;;;;27.33;25.40;;;20.80;76.20;;;;;;5032352;28;20037;-79
2022/08/26 01:10:21;;;;;;;23.83;22.30;;;20.90;76.30;;;;;;5032596;28;20034;-79
2022/08/26 01:12:48;;;;;;;26.25;24.25;;;20.90;75.90;;;;;;5032408;28;20481;-79
2022/08/26 01:15:20;;;;;;;24.77;23.02;;;20.90;76.20;;;;;;5032048;28;20053;-79
2022/08/26 01:17:47;;;;;;;23.95;22.10;;;20.80;76.40;;;;;;5049183;28;20025;-79
2022/08/26 01:20:25;;;;;;;25.08;23.65;;;20.80;76.50;;;;;;5049115;28;20382;-79
2022/08/26 01:22:56;;;;;;;26.38;24.45;;;20.80;76.80;;;;;;5032116;28;20052;-79
2022/08/26 01:25:23;;;;;;;23.73;22.00;;;20.80;76.40;;;;;;5028844;28;20056;-80
2022/08/26 01:27:49;;;;;;;27.55;25.77;;;20.90;76.20;;;;;;5029164;28;20375;-79
2022/08/26 01:30:16;;;;;;;27.13;25.35;;;20.80;76.50;;;;;;5012226;28;20052;-79
2022/08/26 01:32:42;;;;;;;25.52;23.80;;;20.80;77.30;;;;;;5012366;28;20052;-79
2022/08/26 01:35:08;;;;;;;28.65;26.55;;;20.70;77.00;;;;;;5045841;28;20406;-79
2022/08/26 01:37:35;;;;;;;24.65;22.85;;;20.60;77.10;;;;;;5012225;28;20045;-79
2022/08/26 01:40:03;;;;;;;24.10;22.70;;;20.60;77.30;;;;;;5021072;28;20033;-80
2022/08/26 01:42:29;;;;;;;24.58;22.95;;;20.50;77.70;;;;;;5048877;28;20409;-79
2022/08/26 01:45:20;;;;;;;25.77;24.00;;;20.40;78.20;;;;;;5055051;28;20025;-79
2022/08/26 01:47:47;;;;;;;;;;;20.40;78.50;;;;;;5034022;28;20056;-79
2022/08/26 01:50:18;;;;;;;24.05;22.35;;;20.40;78.50;;;;;;5031644;28;19909;-79
2022/08/26 01:52:45;;;;;;;22.90;21.23;;;20.40;78.20;;;;;;5032814;28;20055;-79
2022/08/26 01:55:14;;;;;;;26.33;24.52;;;20.50;78.00;;;;;;5032409;28;20036;-79
2022/08/26 01:57:43;;;;;;;29.15;27.45;;;20.50;77.80;;;;;;5048819;28;20021;-79
2022/08/26 02:00:12;;;;;;;30.15;28.35;;;20.50;77.70;;;;;;5015137;28;20041;-79
2022/08/26 02:02:48;;;;;;;25.65;24.05;;;20.40;78.00;;;;;;5033234;28;20514;-79
2022/08/26 02:05:17;;;;;;;24.25;22.75;;;20.30;78.60;;;;;;5052053;28;20486;-80
2022/08/26 02:07:43;;;;;;;24.83;23.13;;;20.20;78.90;;;;;;5035696;28;20036;-79
2022/08/26 02:10:10;;;;;;;25.45;23.67;;;20.20;78.90;;;;;;5035463;28;20044;-79
2022/08/26 02:12:36;;;;;;;25.60;23.73;;;20.20;78.90;;;;;;5035506;28;20037;-79
2022/08/26 02:15:04;;;;;;;33.40;31.38;;;20.20;78.80;;;;;;5052250;28;20040;-79
2022/08/26 02:17:40;;;;;;;25.27;23.38;;;20.20;78.80;;;;;;5051306;28;20044;-79
2022/08/26 02:20:07;;;;;;;27.80;25.65;;;20.20;79.00;;;;;;5035220;28;20073;-79
2022/08/26 02:22:33;;;;;;;27.83;25.73;;;20.30;78.50;;;;;;5035220;28;20056;-79
2022/08/26 02:25:19;;;;;;;27.70;26.00;;;20.30;78.50;;;;;;5031685;28;20037;-79
2022/08/26 02:27:45;;;;;;;25.58;23.67;;;20.20;78.80;;;;;;5046341;28;20043;-79
2022/08/26 02:30:13;;;;;;;25.55;23.98;;;20.20;78.90;;;;;;5031234;28;20033;-79
2022/08/26 02:32:39;;;;;;;28.30;26.08;;;20.20;78.90;;;;;;5048326;28;20029;-79
2022/08/26 02:35:07;;;;;;;29.13;27.17;;;20.20;78.80;;;;;;5031527;28;20033;-79
2022/08/26 02:37:33;;;;;;;31.42;29.35;;;20.20;78.80;;;;;;5032093;28;20033;-79
2022/08/26 02:39:59;;;;;;;28.45;26.45;;;20.20;78.70;;;;;;5041177;28;20028;-79
2022/08/26 02:42:25;;;;;;;26.42;24.83;;;20.00;79.20;;;;;;5035002;28;20414;-79
2022/08/26 02:44:52;;;;;;;25.40;23.35;;;20.00;79.10;;;;;;5041778;28;20044;-79
2022/08/26 02:47:18;;;;;;;26.13;24.25;;;20.00;79.20;;;;;;5039118;28;20051;-79
2022/08/26 02:49:44;;;;;;;30.20;28.13;;;20.00;79.10;;;;;;5052410;28;20025;-79
2022/08/26 02:52:10;;;;;;;26.10;23.90;;;19.90;79.20;;;;;;5034834;28;20044;-79
2022/08/26 02:54:37;;;;;;;28.00;25.95;;;19.80;79.60;;;;;;5051390;28;20021;-79
2022/08/26 02:57:04;;;;;;;26.95;24.92;;;19.80;79.60;;;;;;5034911;28;20029;-79
2022/08/26 02:59:31;;;;;;;28.58;26.75;;;19.80;79.50;;;;;;5034923;28;20029;-79
2022/08/26 03:01:57;;;;;;;26.27;24.35;;;19.80;79.60;;;;;;5034005;28;20805;-79
2022/08/26 03:04:23;;;;;;;25.92;24.02;;;19.80;79.50;;;;;;5050897;28;20040;-79
2022/08/26 03:06:49;;;;;;;29.70;27.40;;;19.90;79.30;;;;;;5051211;28;20036;-79
2022/08/26 03:09:17;;;;;;;28.70;26.80;;;19.90;78.80;;;;;;5051150;28;20021;-79
2022/08/26 03:11:45;;;;;;;28.35;26.30;;;19.90;78.80;;;;;;5051197;28;20021;-79
2022/08/26 03:14:12;;;;;;;30.23;28.05;;;19.90;79.00;;;;;;5050752;28;20033;-79
2022/08/26 03:16:38;;;;;;;28.90;26.95;;;19.80;79.20;;;;;;5050518;28;20033;-79
2022/08/26 03:19:06;;;;;;;27.52;25.55;;;19.80;79.80;;;;;;5050558;28;20033;-79
2022/08/26 03:21:32;;;;;;;27.52;25.65;;;19.70;79.60;;;;;;5050914;28;20474;-79
2022/08/26 03:23:58;;;;;;;27.35;25.50;;;19.60;79.70;;;;;;5050681;28;20048;-79
2022/08/26 03:26:24;;;;;;;27.42;25.48;;;19.60;79.70;;;;;;5052166;28;20377;-79
2022/08/26 03:31:35;;;;;;;27.67;25.75;;;19.60;80.00;;;;;;5052483;28;20398;-79
2022/08/26 03:34:02;;;;;;;26.92;25.02;;;19.50;80.10;;;;;;5050489;28;20029;-79
2022/08/26 03:36:28;;;;;;;27.48;25.65;;;19.40;80.20;;;;;;5050928;28;20029;-79
2022/08/26 03:38:54;;;;;;;26.25;24.38;;;19.40;80.40;;;;;;5050714;28;20032;-79
2022/08/26 03:41:20;;;;;;;27.45;25.65;;;19.40;80.20;;;;;;5050172;28;20029;-79
2022/08/26 03:43:47;;;;;;;26.77;25.08;;;19.40;80.40;;;;;;5066448;28;20390;-79
2022/08/26 03:46:13;;;;;;;28.27;26.63;;;19.40;80.40;;;;;;5054577;28;20043;-79
2022/08/26 03:48:39;;;;;;;29.08;26.70;;;19.40;80.30;;;;;;5050242;28;20064;-79
2022/08/26 03:51:14;;;;;;;28.27;26.30;;;19.40;80.20;;;;;;5050301;28;20029;-79
2022/08/26 03:53:40;;;;;;;29.17;27.20;;;19.40;80.00;;;;;;5050395;28;20020;-79
2022/08/26 03:56:06;;;;;;;28.15;26.15;;;19.50;79.70;;;;;;5033812;28;20025;-79
2022/08/26 03:58:33;;;;;;;28.55;26.73;;;19.50;79.50;;;;;;5017239;28;20040;-79
2022/08/26 04:00:59;;;;;;;27.73;25.73;;;19.50;79.40;;;;;;5032907;28;20482;-79
2022/08/26 04:06:10;;;;;;;27.30;25.40;;;19.50;79.40;;;;;;5050451;28;20048;-79
2022/08/26 04:08:36;;;;;;;28.23;25.55;;;19.50;79.00;;;;;;5050285;28;20549;-79
2022/08/26 04:11:03;;;;;;;28.48;26.40;;;19.50;79.20;;;;;;5033560;28;20068;-79
2022/08/26 04:13:29;;;;;;;25.98;24.30;;;19.40;79.90;;;;;;5033560;28;20044;-79
2022/08/26 04:15:56;;;;;;;26.80;25.08;;;19.40;79.80;;;;;;5049163;28;20021;-80
2022/08/26 04:18:22;;;;;;;26.20;24.30;;;19.30;79.90;;;;;;5033448;28;20509;-79
2022/08/26 04:20:49;;;;;;;26.73;24.85;;;19.30;79.80;;;;;;5033049;28;20045;-79
2022/08/26 04:23:15;;;;;;;24.92;23.13;;;19.30;79.80;;;;;;5033171;28;20048;-79
2022/08/26 04:25:42;;;;;;;25.88;23.88;;;19.20;80.80;;;;;;5050585;28;20039;-79
2022/08/26 04:28:08;;;;;;;26.45;24.75;;;19.20;80.10;;;;;;5033121;28;20033;-79
2022/08/26 04:30:38;;;;;;;24.48;22.75;;;19.20;79.90;;;;;;5048954;28;20037;-79
2022/08/26 04:33:06;;;;;;;26.05;23.83;;;19.20;80.10;;;;;;5049705;28;20044;-79
2022/08/26 04:35:33;;;;;;;25.75;23.85;;;19.10;80.40;;;;;;5049551;28;20036;-79
2022/08/26 04:38:00;;;;;;;26.13;24.10;;;19.20;80.00;;;;;;5049565;28;20025;-79
2022/08/26 04:40:26;;;;;;;26.83;24.70;;;19.20;80.00;;;;;;5049513;28;20568;-79
2022/08/26 04:42:53;;;;;;;25.10;23.48;;;19.20;80.10;;;;;;5049518;28;20037;-79
2022/08/26 04:45:19;;;;;;;25.35;23.52;;;19.10;80.40;;;;;;5053860;28;20029;-79
2022/08/26 04:47:45;;;;;;;27.02;24.92;;;19.10;80.20;;;;;;5035331;28;20041;-79
2022/08/26 04:50:11;;;;;;;27.60;25.20;;;19.20;80.10;;;;;;5049364;28;20028;-79
2022/08/26 04:52:37;;;;;;;27.00;24.88;;;19.20;80.00;;;;;;5047559;28;20386;-80
2022/08/26 04:55:04;;;;;;;26.60;23.95;;;19.20;80.10;;;;;;5049356;28;20391;-79
2022/08/26 04:57:32;;;;;;;26.83;24.83;;;19.10;80.20;;;;;;5049413;28;20037;-79
2022/08/26 04:59:59;;;;;;;26.80;24.77;;;19.10;80.20;;;;;;5049135;28;20386;-79
2022/08/26 05:02:26;;;;;;;27.50;25.45;;;19.10;79.90;;;;;;5032135;28;20036;-79
2022/08/26 05:04:52;;;;;;;27.38;25.48;;;19.10;80.20;;;;;;5050682;28;20033;-79
2022/08/26 05:07:18;;;;;;;27.35;25.30;;;19.10;80.30;;;;;;5050360;28;20040;-79
2022/08/26 05:09:44;;;;;;;27.48;25.38;;;19.00;80.60;;;;;;5049274;28;20033;-79
2022/08/26 05:12:11;;;;;;;28.00;26.00;;;18.90;81.20;;;;;;5049020;28;20388;-79
2022/08/26 05:14:37;;;;;;;28.77;26.42;;;18.80;81.20;;;;;;5050062;28;20033;-79
2022/08/26 05:17:03;;;;;;;28.98;26.88;;;18.90;81.10;;;;;;5050087;28;20492;-79
2022/08/26 05:19:30;;;;;;;28.38;26.40;;;19.00;80.70;;;;;;5049139;28;20037;-79
2022/08/26 05:21:56;;;;;;;27.40;25.58;;;19.00;80.30;;;;;;5048702;28;20045;-79
2022/08/26 05:24:22;;;;;;;27.67;25.77;;;19.00;80.40;;;;;;5049197;28;20044;-79
2022/08/26 05:26:48;;;;;;;26.98;25.02;;;19.00;80.60;;;;;;5033144;28;20033;-79
2022/08/26 05:29:15;;;;;;;28.15;26.13;;;18.90;81.00;;;;;;5032176;28;20409;-79
2022/08/26 05:31:41;;;;;;;29.63;27.73;;;18.80;81.40;;;;;;5048629;28;20033;-79
2022/08/26 05:34:08;;;;;;;29.02;26.65;;;18.80;81.50;;;;;;5048997;28;20506;-79
2022/08/26 05:36:34;;;;;;;27.77;25.92;;;18.80;81.50;;;;;;5032289;28;20040;-79
2022/08/26 05:39:01;;;;;;;30.40;27.58;;;18.90;81.20;;;;;;5052472;28;20045;-79
2022/08/26 05:41:32;;;;;;;29.70;27.42;;;18.90;81.00;;;;;;5035626;28;20056;-79
2022/08/26 05:43:58;;;;;;;;;;;19.00;80.90;;;;;;5034007;28;20056;-79
2022/08/26 05:46:25;;;;;;;25.08;23.10;;;18.90;81.70;;;;;;5057546;28;19913;-79
2022/08/26 05:48:55;;;;;;;28.48;26.15;;;18.90;81.30;;;;;;5020050;28;20041;-79
2022/08/26 05:51:21;;;;;;;28.77;26.52;;;18.90;81.20;;;;;;5036768;28;20033;-79
2022/08/26 05:53:48;;;;;;;29.35;27.13;;;18.90;81.20;;;;;;5019221;28;20037;-79
2022/08/26 05:56:14;;;;;;;30.08;27.75;;;18.90;81.20;;;;;;5035983;28;20036;-79
2022/08/26 05:58:41;;;;;;;30.13;27.92;;;18.80;81.40;;;;;;5035719;28;20035;-79
2022/08/26 06:01:09;;;;;;;29.27;27.17;;;18.90;81.30;;;;;;5035482;28;20025;-79
2022/08/26 06:03:37;;;;;;;28.17;25.88;;;18.90;81.30;;;;;;5052370;28;20493;-79
2022/08/26 06:06:08;;;;;;;29.50;27.13;;;18.90;81.40;;;;;;5052394;28;20036;-79
2022/08/26 06:08:34;;;;;;;;;;;18.90;81.40;;;;;;5035941;28;20482;-79
2022/08/26 06:11:01;;;;;;;28.42;26.02;;;18.90;81.20;;;;;;5052235;28;19905;-79
2022/08/26 06:13:28;;;;;;;29.25;26.67;;;19.00;81.20;;;;;;5052104;28;20033;-79
2022/08/26 06:15:54;;;;;;;29.73;27.70;;;18.90;81.00;;;;;;5035175;28;20033;-79
2022/08/26 06:18:33;;;;;;;30.02;28.02;;;18.90;81.10;;;;;;5052208;28;20036;-79
2022/08/26 06:21:01;;;;;;;29.08;26.73;;;19.00;81.20;;;;;;5036312;28;20037;-79
2022/08/26 06:26:14;;;;;;;25.23;23.38;;;19.10;80.50;;;;;;5044764;28;20076;-79
2022/08/26 06:28:41;;;;;;;27.67;25.65;;;19.20;80.20;;;;;;5019252;28;20037;-79
2022/08/26 06:31:07;;;;;;;29.00;26.80;;;19.10;80.40;;;;;;5032914;28;20025;-79
2022/08/26 06:33:34;;;;;;;30.05;27.80;;;19.00;80.70;;;;;;5035411;28;20481;-80
2022/08/26 06:36:00;;;;;;;28.85;26.73;;;19.00;80.50;;;;;;5051793;28;20025;-79
2022/08/26 06:38:26;;;;;;;28.85;26.88;;;19.00;80.30;;;;;;5051663;28;20557;-79
2022/08/26 06:40:53;;;;;;;29.67;27.67;;;19.00;80.80;;;;;;5031153;28;20063;-79
2022/08/26 06:43:22;;;;;;;28.85;26.80;;;19.00;80.60;;;;;;5048608;28;20382;-79
2022/08/26 06:45:49;;;;;;;27.88;25.50;;;19.00;80.60;;;;;;5056392;28;20047;-79
2022/08/26 06:48:16;;;;;;;29.00;26.70;;;19.00;80.40;;;;;;5034237;28;20588;-79
2022/08/26 06:50:43;;;;;;;26.55;24.67;;;19.00;80.40;;;;;;5051561;28;20044;-80
2022/08/26 06:53:09;;;;;;;26.85;24.50;;;19.20;80.20;;;;;;5034385;28;20041;-79
2022/08/26 06:55:43;;;;;;;26.25;24.27;;;19.10;80.00;;;;;;5034629;28;20037;-79
2022/08/26 06:58:09;;;;;;;25.15;23.27;;;19.20;80.10;;;;;;5035003;28;20493;-79
2022/08/26 07:00:37;;;;;;;29.38;27.27;;;19.30;79.70;;;;;;5034289;28;20040;-79
2022/08/26 07:03:03;;;;;;;28.90;26.95;;;19.40;79.10;;;;;;5051233;28;20116;-79
2022/08/26 07:05:29;;;;;;;29.58;27.25;;;19.40;79.00;;;;;;5051300;28;20037;-79
2022/08/26 07:07:56;;;;;;;31.25;29.08;;;19.30;79.30;;;;;;5051258;28;20025;-79
2022/08/26 07:10:23;;;;;;;30.83;28.42;;;19.30;79.40;;;;;;5051859;28;20474;-80
2022/08/26 07:12:50;;;;;;;29.90;27.63;;;19.30;79.30;;;;;;5050571;28;20045;-79
2022/08/26 07:15:16;;;;;;;27.42;25.25;;;19.40;79.30;;;;;;5050744;28;20029;-80
2022/08/26 07:17:42;;;;;;;29.33;27.33;;;19.40;79.10;;;;;;5051126;28;20043;-79
2022/08/26 07:20:10;;;;;;;28.90;26.58;;;19.40;79.40;;;;;;5051026;28;20505;-79
2022/08/26 07:22:36;;;;;;;30.98;28.75;;;19.30;79.60;;;;;;5050930;28;20032;-79
2022/08/26 07:25:06;;;;;;;28.73;26.75;;;19.30;79.70;;;;;;5050504;28;20036;-79
2022/08/26 07:27:33;;;;;;;31.63;29.23;;;19.30;79.80;;;;;;5050740;28;20036;-79
2022/08/26 07:29:59;;;;;;;30.02;27.90;;;19.40;79.50;;;;;;5034486;28;20496;-79
2022/08/26 07:32:26;;;;;;;26.95;24.95;;;19.50;79.40;;;;;;5050232;28;20041;-79
2022/08/26 07:34:52;;;;;;;26.77;24.88;;;19.60;79.20;;;;;;5050810;28;20029;-79
2022/08/26 07:37:18;;;;;;;29.25;26.90;;;19.60;78.90;;;;;;5051892;28;20029;-79
2022/08/26 07:39:46;;;;;;;29.33;27.15;;;19.70;78.70;;;;;;5049688;28;20032;-80
2022/08/26 07:42:13;;;;;;;29.10;26.90;;;19.80;78.60;;;;;;5033817;28;20037;-80
2022/08/26 07:44:39;;;;;;;31.35;29.15;;;20.00;78.40;;;;;;5042604;28;20048;-80
2022/08/26 07:47:07;;;;;;;34.60;32.28;;;20.10;77.50;;;;;;5054970;28;20051;-79
2022/08/26 07:49:33;;;;;;;34.95;32.55;;;20.20;77.10;;;;;;5034039;28;20417;-79
2022/08/26 07:51:59;;;;;;;34.85;32.65;;;20.30;76.80;;;;;;5033635;28;20032;-79
2022/08/26 07:54:25;;;;;;;37.38;34.78;;;20.30;76.80;;;;;;5049866;28;20036;-79
2022/08/26 07:56:52;;;;;;;36.42;33.95;;;20.30;76.50;;;;;;5034049;28;20061;-79
2022/08/26 07:59:19;;;;;;;34.67;32.35;;;20.40;76.50;;;;;;5049950;28;20024;-79
2022/08/26 08:01:45;;;;;;;35.75;33.38;;;20.50;76.40;;;;;;5032496;28;20402;-79
2022/08/26 08:04:12;;;;;;;33.92;31.63;;;20.60;75.70;;;;;;5050173;28;20056;-80
2022/08/26 08:06:38;;;;;;;34.85;32.50;;;20.70;75.80;;;;;;5050158;28;20021;-79
2022/08/26 08:09:05;;;;;;;45.25;42.65;;;20.70;74.90;;;;;;5049854;28;20028;-79
2022/08/26 08:11:31;;;;;;;41.50;38.75;;;21.00;74.80;;;;;;5049963;28;20033;-80
2022/08/26 08:13:59;;;;;;;34.55;32.15;;;21.20;73.70;;;;;;5049929;28;20032;-79
2022/08/26 08:16:27;;;;;;;34.60;32.40;;;21.20;72.90;;;;;;5049624;28;20040;-79
2022/08/26 08:18:55;;;;;;;33.67;31.55;;;21.10;73.10;;;;;;5049844;28;20044;-79
2022/08/26 08:21:23;;;;;;;26.23;24.45;;;21.20;73.00;;;;;;5050057;28;20029;-80
2022/08/26 08:23:52;;;;;;;25.05;23.30;;;21.40;72.10;;;;;;5049374;28;20045;-79
2022/08/26 08:26:18;;;;;;;26.98;25.23;;;21.40;70.70;;;;;;5049834;28;20032;-79
2022/08/26 08:28:45;;;;;;;24.85;22.95;;;21.40;71.10;;;;;;5049683;28;20033;-79
2022/08/26 08:31:41;;;;;;;24.70;22.95;;;21.40;70.50;;;;;;5032459;28;20028;-80
2022/08/26 08:34:07;;;;;;;25.30;23.58;;;21.40;70.70;;;;;;5049574;28;20489;-80
2022/08/26 08:36:33;;;;;;;24.88;23.35;;;21.40;70.70;;;;;;5049402;28;20033;-79
2022/08/26 08:38:59;;;;;;;24.02;22.52;;;21.40;70.70;;;;;;5032757;28;20147;-79
2022/08/26 08:41:28;;;;;;;26.60;24.70;;;21.50;70.70;;;;;;5029610;28;20037;-79
2022/08/26 08:43:55;;;;;;;23.58;21.98;;;21.50;70.40;;;;;;5030529;28;20041;-80
2022/08/26 08:46:21;;;;;;;25.25;23.55;;;21.60;70.10;;;;;;5045324;28;20029;-80
2022/08/26 08:48:51;;;;;;;26.02;24.27;;;21.90;69.30;;;;;;5032796;28;20060;-80
2022/08/26 08:51:32;;;;;;;25.30;23.80;;;22.20;67.90;;;;;;5032890;28;20470;-80
2022/08/26 08:53:59;;;;;;;26.95;25.02;;;22.30;67.40;;;;;;5050635;28;20450;-80
2022/08/26 08:56:30;;;;;;;24.00;22.65;;;22.50;66.30;;;;;;5033005;28;20037;-79
2022/08/26 08:59:02;;;;;;;25.85;24.25;;;22.60;65.70;;;;;;5032593;28;20037;-79
2022/08/26 09:01:52;;;;;;;27.35;25.65;;;22.40;66.00;;;;;;5048950;28;20469;-80
2022/08/26 09:04:33;;;;;;;27.00;25.40;;;22.40;65.80;;;;;;5049230;28;20036;-80
2022/08/26 09:07:00;;;;;;;;;;;22.30;65.60;;;;;;5049558;28;20040;-80
2022/08/26 09:09:40;;;;;;;22.75;21.35;;;22.30;65.70;;;;;;5049281;28;19909;-80
2022/08/26 09:12:11;;;;;;;22.02;20.52;;;22.40;65.30;;;;;;5051092;28;20036;-80
2022/08/26 09:14:37;;;;;;;21.55;20.13;;;22.50;65.80;;;;;;5053335;28;20496;-80
2022/08/26 09:17:11;;;;;;;22.15;20.70;;;22.80;64.80;;;;;;5052993;28;20036;-80
2022/08/26 09:19:41;;;;;;;23.33;21.80;;;23.10;63.60;;;;;;5053026;28;20040;-80
2022/08/26 09:22:08;;;;;;;26.92;25.08;;;23.10;63.30;;;;;;5053301;28;20021;-80
2022/08/26 09:24:35;;;;;;;27.83;26.02;;;22.90;63.50;;;;;;5017092;28;20045;-80
2022/08/26 09:27:01;;;;;;;26.65;25.20;;;22.80;64.10;;;;;;4997226;28;20053;-80
2022/08/26 09:29:33;;;;;;;23.33;22.02;;;22.90;64.30;;;;;;4997009;28;20616;-80
2022/08/26 09:32:20;;;;;;;24.33;22.88;;;23.10;63.70;;;;;;5028732;28;20033;-80
2022/08/26 09:34:57;;;;;;;22.85;21.55;;;23.20;62.90;;;;;;5032872;28;20030;-80
2022/08/26 09:37:44;;;;;;;28.10;26.48;;;23.40;61.90;;;;;;5033273;28;20045;-80
2022/08/26 09:40:31;;;;;;;24.35;22.98;;;23.50;61.60;;;;;;5044020;28;20016;-80
2022/08/26 09:43:12;;;;;;;25.75;24.23;;;23.30;62.20;;;;;;5052732;28;20397;-80
2022/08/26 09:45:40;;;;;;;33.55;31.55;;;23.40;62.20;;;;;;5052383;28;20033;-80
2022/08/26 09:48:06;;;;;;;27.23;25.63;;;23.50;62.80;;;;;;5015773;28;20390;-77
2022/08/26 09:50:36;;;;;;;27.30;25.70;;;23.60;60.80;;;;;;5032626;28;20382;-78
2022/08/26 09:53:07;;;;;;;27.67;25.92;;;23.70;60.70;;;;;;5032774;28;20368;-78
2022/08/26 09:55:33;;;;;;;;;;;23.80;60.90;;;;;;5033246;28;20029;-78
2022/08/26 09:57:59;;;;;;;28.52;26.92;;;23.80;59.90;;;;;;5032770;28;19909;-78
2022/08/26 10:00:33;;;;;;;31.20;29.35;;;24.10;60.30;;;;;;5032490;28;20034;-78
2022/08/26 10:03:00;;;;;;;26.52;24.92;;;24.40;60.10;;;;;;5016021;28;20105;-78
2022/08/26 10:05:48;;;;;;;27.50;25.70;;;24.70;58.10;;;;;;5016386;28;20029;-78
2022/08/26 10:08:44;;;;;;;31.90;30.20;;;24.90;57.30;;;;;;5022321;28;20048;-78
2022/08/26 10:11:18;;;;;;;28.05;26.48;;;25.20;57.50;;;;;;5018956;28;20040;-78
2022/08/26 10:13:47;;;;;;;30.23;28.60;;;25.30;56.00;;;;;;5016562;28;20048;-78
2022/08/26 10:16:17;;;;;;;26.67;25.27;;;25.30;56.50;;;;;;5015634;28;20044;-78
2022/08/26 10:18:59;;;;;;;26.65;25.33;;;25.40;55.70;;;;;;5015520;28;20041;-78
2022/08/26 10:21:44;;;;;;;26.05;24.65;;;25.40;55.40;;;;;;5016127;28;20037;-78
2022/08/26 10:24:10;;;;;;;25.73;24.33;;;25.40;55.00;;;;;;5005823;28;20045;-78
2022/08/26 10:26:57;;;;;;;21.35;20.15;;;25.70;54.70;;;;;;5052025;28;20377;-78
2022/08/26 10:29:28;;;;;;;24.30;22.98;;;25.60;54.90;;;;;;5035391;28;20045;-78
2022/08/26 10:31:59;;;;;;;;;;;25.70;54.80;;;;;;5035077;28;20367;-78
2022/08/26 10:34:25;;;;;;;19.30;18.30;;;25.60;54.60;;;;;;5052096;28;19912;-78
2022/08/26 10:36:56;;;;;;;19.83;18.58;;;25.30;55.20;;;;;;5051956;28;20037;-78
2022/08/26 10:39:27;;;;;;;23.20;21.80;;;25.30;55.00;;;;;;5035027;28;20033;-78
2022/08/26 10:41:56;;;;;;;25.15;23.75;;;25.30;55.60;;;;;;5051447;28;20417;-78
2022/08/26 10:44:22;;;;;;;32.42;30.63;;;25.40;55.50;;;;;;5029077;28;20049;-78
2022/08/26 10:46:53;;;;;;;21.90;20.80;;;25.50;55.00;;;;;;5055913;28;20045;-78
2022/08/26 10:49:19;;;;;;;21.67;20.48;;;25.50;54.80;;;;;;5035489;28;20036;-78
2022/08/26 10:52:06;;;;;;;21.85;20.73;;;25.30;55.00;;;;;;5051408;28;20040;-78
2022/08/26 10:54:48;;;;;;;24.63;22.27;;;25.10;55.50;;;;;;5051351;28;20041;-80
2022/08/26 10:57:17;;;;;;;24.25;23.05;;;25.20;55.40;;;;;;5051358;28;20052;-78
2022/08/26 10:59:51;;;;;;;29.55;28.05;;;25.40;56.30;;;;;;5051626;28;20378;-78
2022/08/26 11:02:35;;;;;;;29.77;28.20;;;25.90;55.90;;;;;;5050493;28;20037;-78
2022/08/26 11:05:04;;;;;;;24.40;23.15;;;26.30;53.80;;;;;;5051399;28;20064;-78
2022/08/26 11:07:39;;;;;;;23.40;22.05;;;26.10;53.30;;;;;;5050900;28;20037;-78
2022/08/26 11:10:17;;;;;;;24.65;23.35;;;25.80;53.30;;;;;;5051374;28;20037;-78
2022/08/26 11:12:44;;;;;;;27.98;26.45;;;25.50;54.00;;;;;;5050965;28;20041;-78
2022/08/26 11:15:13;;;;;;;24.55;23.25;;;25.70;54.90;;;;;;5051675;28;20036;-78
2022/08/26 11:17:45;;;;;;;23.20;21.90;;;26.00;53.10;;;;;;5052475;28;20382;-78
2022/08/26 11:20:35;;;;;;;24.92;23.63;;;26.00;53.20;;;;;;5052619;28;20033;-77
2022/08/26 11:23:44;;;;;;;21.20;20.15;;;26.10;53.20;;;;;;5051087;28;20040;-78
2022/08/26 11:26:11;;;;;;;24.95;23.60;;;26.00;53.10;;;;;;5049615;28;20041;-78
2022/08/26 11:28:42;;;;;;;25.25;23.92;;;26.10;53.00;;;;;;5049684;28;20044;-78
2022/08/26 11:31:17;;;;;;;23.17;21.98;;;26.30;52.40;;;;;;5048774;28;20530;-78
2022/08/26 11:33:55;;;;;;;25.02;23.65;;;26.50;51.80;;;;;;5048140;28;20645;-78
2022/08/26 11:36:37;;;;;;;22.33;21.02;;;26.30;51.70;;;;;;5048902;28;20056;-78
2022/08/26 11:39:16;;;;;;;24.13;22.90;;;26.30;50.90;;;;;;5049006;28;20041;-77
2022/08/26 11:41:48;;;;;;;26.65;25.35;;;26.20;51.70;;;;;;5016856;28;20080;-78
2022/08/26 11:44:39;;;;;;;23.75;22.55;;;26.50;52.50;;;;;;5016031;28;20061;-78
2022/08/26 11:47:07;;;;;;;23.08;21.77;;;26.50;51.40;;;;;;5031473;28;20060;-78
2022/08/26 11:49:34;;;;;;;24.15;22.95;;;26.50;50.90;;;;;;5049425;28;20029;-78
2022/08/26 11:52:13;;;;;;;20.85;19.70;;;26.30;50.30;;;;;;5032314;28;20498;-78
2022/08/26 11:54:39;;;;;;;23.95;22.70;;;26.10;50.80;;;;;;5049176;28;20047;-78
2022/08/26 11:57:06;;;;;;;23.80;22.50;;;26.00;51.10;;;;;;5049485;28;20180;-78
2022/08/26 11:59:37;;;;;;;23.58;22.33;;;26.10;50.80;;;;;;5032203;28;20037;-78
2022/08/26 12:02:03;;;;;;;;;;;26.20;50.50;;;;;;5042683;28;20413;-78
2022/08/26 12:04:31;;;;;;;23.38;22.02;;;26.20;51.30;;;;;;5033618;28;20276;-78
2022/08/26 12:06:59;;;;;;;22.17;20.98;;;26.20;50.10;;;;;;5050202;28;20032;-77
2022/08/26 12:09:30;;;;;;;25.35;24.05;;;26.20;50.50;;;;;;5050191;28;20040;-78
2022/08/26 12:12:24;;;;;;;28.10;25.83;;;26.30;51.30;;;;;;5032982;28;20044;-78
2022/08/26 12:15:17;;;;;;;29.50;27.95;;;26.70;49.60;;;;;;5049713;28;20033;-78
2022/08/26 12:17:44;;;;;;;23.70;22.50;;;26.90;48.40;;;;;;5048246;28;20041;-76
2022/08/26 12:20:47;;;;;;;21.75;20.65;;;26.80;48.60;;;;;;5005298;28;20051;-76
2022/08/26 12:23:21;;;;;;;23.15;21.95;;;26.40;49.00;;;;;;5038198;28;20041;-76
2022/08/26 12:25:49;;;;;;;23.65;22.25;;;26.10;49.30;;;;;;5026239;28;20048;-76
2022/08/26 12:28:15;;;;;;;24.83;23.63;;;26.10;49.50;;;;;;5041601;28;20036;-76
2022/08/26 12:30:41;;;;;;;23.63;22.33;;;26.20;49.10;;;;;;5040884;28;20036;-76
2022/08/26 12:33:11;;;;;;;22.98;21.48;;;26.10;49.00;;;;;;5046537;28;20033;-78
2022/08/26 12:35:38;;;;;;;23.92;22.73;;;26.10;49.20;;;;;;5033317;28;20037;-78
2022/08/26 12:38:04;;;;;;;25.40;24.15;;;26.30;49.40;;;;;;5049666;28;20037;-78
2022/08/26 12:40:34;;;;;;;25.17;23.88;;;26.40;49.00;;;;;;5049532;28;20036;-78
2022/08/26 12:43:01;;;;;;;25.48;24.13;;;26.60;48.90;;;;;;5049410;28;20505;-78
2022/08/26 12:45:33;;;;;;;28.20;26.80;;;26.70;48.00;;;;;;5052420;28;20041;-78
2022/08/26 12:48:10;;;;;;;31.67;30.15;;;26.80;47.80;;;;;;5033389;28;20041;-78